createdAt,value
2022-12-09T00:03:23.084Z,18.70
2022-12-09T00:08:25.971Z,18.70
2022-12-09T00:13:32.640Z,20.10
2022-12-09T00:18:35.370Z,22.50
2022-12-09T00:23:37.110Z,18.80
2022-12-09T00:28:40.025Z,19.40
2022-12-09T00:33:42.302Z,19.30
2022-12-09T00:38:46.204Z,16.40
2022-12-09T00:43:48.436Z,18.60
2022-12-09T00:48:50.912Z,18.30
2022-12-09T00:53:54.924Z,18.10
2022-12-09T00:58:58.674Z,18.50
2022-12-09T01:04:02.773Z,17.10
2022-12-09T01:09:05.200Z,17.20
2022-12-09T01:14:07.328Z,15.70
2022-12-09T01:19:13.319Z,14.40
2022-12-09T01:24:15.437Z,13.30
2022-12-09T01:29:17.146Z,12.50
2022-12-09T01:34:19.340Z,13.80
2022-12-09T01:39:21.209Z,15.30
2022-12-09T01:44:25.385Z,16.20
2022-12-09T01:49:34.315Z,16.70
2022-12-09T01:54:37.672Z,17.40
2022-12-09T01:59:40.329Z,17.10
2022-12-09T02:04:45.638Z,17.10
2022-12-09T02:09:53.473Z,15.70
2022-12-09T02:15:06.783Z,13.90
2022-12-09T02:20:21.605Z,16.60
2022-12-09T02:25:34.352Z,14.60
2022-12-09T02:30:56.753Z,15.80
2022-12-09T02:36:05.783Z,16.20
2022-12-09T02:41:15.266Z,15.40
2022-12-09T02:46:21.881Z,16.20
2022-12-09T02:51:27.300Z,14.80
2022-12-09T02:56:29.570Z,16.00
2022-12-09T03:01:43.928Z,17.20
2022-12-09T03:06:53.230Z,17.80
2022-12-09T03:11:59.524Z,16.30
2022-12-09T03:17:12.900Z,15.80
2022-12-09T03:22:18.541Z,17.30
2022-12-09T03:27:25.643Z,13.70
2022-12-09T03:32:29.893Z,17.40
2022-12-09T03:37:33.213Z,13.30
2022-12-09T03:42:42.884Z,18.30
2022-12-09T03:47:44.728Z,16.30
2022-12-09T03:52:54.011Z,19.20
2022-12-09T03:58:00.297Z,17.80
2022-12-09T04:03:02.086Z,20.20
2022-12-09T04:08:04.159Z,18.60
2022-12-09T04:13:06.305Z,16.90
2022-12-09T04:18:08.182Z,20.70
2022-12-09T04:23:10.564Z,23.90
2022-12-09T04:28:12.644Z,22.40
2022-12-09T04:33:14.649Z,21.80
2022-12-09T04:38:16.341Z,25.80
2022-12-09T04:43:18.235Z,21.80
2022-12-09T04:48:20.472Z,26.60
2022-12-09T04:53:23.292Z,27.80
2022-12-09T04:58:25.427Z,25.10
2022-12-09T05:03:27.453Z,26.50
2022-12-09T05:08:31.656Z,23.20
2022-12-09T05:13:34.312Z,25.10
2022-12-09T05:18:36.829Z,25.70
2022-12-09T05:23:39.530Z,29.30
2022-12-09T05:28:42.370Z,27.70
2022-12-09T05:33:45.823Z,31.30
2022-12-09T05:38:48.957Z,32.20
2022-12-09T05:43:52.128Z,30.00
2022-12-09T05:48:54.800Z,30.60
2022-12-09T05:54:01.022Z,32.30
2022-12-09T05:59:03.317Z,31.00
2022-12-09T06:04:05.643Z,28.10
2022-12-09T06:09:12.219Z,36.90
2022-12-09T06:14:14.439Z,34.20
2022-12-09T06:19:16.685Z,36.40
2022-12-09T06:24:18.844Z,38.80
2022-12-09T06:29:21.266Z,38.40
2022-12-09T06:34:23.243Z,36.40
2022-12-09T06:39:25.200Z,37.70
2022-12-09T06:44:27.007Z,38.10
2022-12-09T06:49:28.721Z,39.10
2022-12-09T06:54:31.059Z,40.10
2022-12-09T06:59:32.962Z,41.50
2022-12-09T07:04:35.255Z,41.00
2022-12-09T07:09:37.808Z,42.60
2022-12-09T07:14:39.946Z,41.30
2022-12-09T07:19:41.892Z,42.00
2022-12-09T07:24:44.592Z,41.40
2022-12-09T07:29:47.237Z,42.00
2022-12-09T07:34:49.477Z,45.80
2022-12-09T07:39:51.436Z,51.30
2022-12-09T07:44:53.460Z,46.90
2022-12-09T07:49:56.812Z,50.20
2022-12-09T07:55:01.623Z,55.20
2022-12-09T08:00:04.929Z,52.10
2022-12-09T08:05:13.801Z,52.60
2022-12-09T08:10:16.612Z,51.90
2022-12-09T08:15:20.312Z,50.20
2022-12-09T08:20:28.876Z,52.80
2022-12-09T08:25:31.466Z,51.40
2022-12-09T08:30:33.314Z,52.40
2022-12-09T08:35:38.021Z,54.20
2022-12-09T08:40:40.786Z,58.70
2022-12-09T08:45:42.726Z,58.50
2022-12-09T08:50:45.375Z,62.30
2022-12-09T08:55:47.647Z,57.60
2022-12-09T09:00:50.419Z,60.40
2022-12-09T09:05:52.397Z,58.90
2022-12-09T09:10:55.105Z,73.80
2022-12-09T09:15:57.094Z,68.40
2022-12-09T09:20:59.734Z,73.70
2022-12-09T09:26:03.499Z,74.40
2022-12-09T09:31:07.692Z,64.20
2022-12-09T09:36:20.984Z,64.00
2022-12-09T09:41:27.226Z,67.00
2022-12-09T09:46:44.224Z,72.20
2022-12-09T09:51:47.615Z,71.70
2022-12-09T09:57:39.084Z,74.60
2022-12-09T10:03:04.972Z,79.70
2022-12-09T10:08:28.069Z,77.20
2022-12-09T10:13:44.224Z,85.10
2022-12-09T10:19:07.655Z,104.40
2022-12-09T10:24:26.201Z,108.90
2022-12-09T10:29:56.789Z,93.50
2022-12-09T10:35:00.375Z,93.30
2022-12-09T10:40:36.237Z,79.10
2022-12-09T10:51:24.795Z,78.10
2022-12-09T10:56:32.640Z,75.50
2022-12-09T11:01:51.659Z,63.60
2022-12-09T11:07:05.229Z,62.40
2022-12-09T11:12:17.610Z,86.20
2022-12-09T11:17:39.971Z,88.10
2022-12-09T11:22:44.139Z,81.30
2022-12-09T11:27:54.608Z,69.80
2022-12-09T11:32:58.775Z,62.80
2022-12-09T11:38:13.326Z,61.30
2022-12-09T11:43:15.279Z,63.20
2022-12-09T11:48:35.015Z,72.70
2022-12-09T11:53:41.189Z,54.60
2022-12-09T11:58:48.648Z,54.60
2022-12-09T12:04:00.654Z,56.10
2022-12-09T12:09:11.731Z,73.60
2022-12-09T12:14:22.976Z,52.80
2022-12-09T12:19:37.370Z,52.00
2022-12-09T12:24:46.359Z,51.20
2022-12-09T12:30:10.728Z,53.60
2022-12-09T12:35:30.544Z,39.50
2022-12-09T12:40:38.765Z,34.40
2022-12-09T12:46:17.191Z,41.50
2022-12-09T12:51:37.257Z,44.80
2022-12-09T12:57:09.286Z,30.80
2022-12-09T13:02:22.905Z,32.30
2022-12-09T13:07:38.629Z,33.70
2022-12-09T13:12:56.587Z,33.30
2022-12-09T13:18:07.450Z,36.30
2022-12-09T13:23:39.897Z,35.40
2022-12-09T13:28:54.857Z,27.20
2022-12-09T13:34:15.593Z,29.50
2022-12-09T13:39:39.208Z,33.00
2022-12-09T13:44:41.032Z,30.10
2022-12-09T13:49:51.571Z,29.50
2022-12-09T13:54:53.412Z,28.70
2022-12-09T14:00:00.468Z,29.30
2022-12-09T14:05:26.161Z,30.80
2022-12-09T14:10:47.821Z,25.20
2022-12-09T14:16:28.137Z,27.50
2022-12-09T14:26:47.810Z,21.60
2022-12-09T14:31:55.426Z,26.70
2022-12-09T14:37:41.570Z,24.80
2022-12-09T14:43:05.193Z,24.10
2022-12-09T14:48:15.021Z,25.20
2022-12-09T14:53:25.836Z,21.60
2022-12-09T14:58:27.928Z,17.60
2022-12-09T15:03:35.451Z,19.10
2022-12-09T15:08:40.977Z,18.40
2022-12-09T15:13:47.373Z,20.20
2022-12-09T15:18:51.314Z,16.20
2022-12-09T15:23:53.369Z,18.00
2022-12-09T15:28:56.617Z,18.70
2022-12-09T15:34:00.770Z,22.80
2022-12-09T15:39:07.254Z,22.90
2022-12-09T15:44:14.291Z,18.10
2022-12-09T15:49:23.172Z,18.10
2022-12-09T15:54:36.027Z,21.40
2022-12-09T15:59:55.340Z,25.10
2022-12-09T16:05:02.908Z,27.70
2022-12-09T16:10:08.113Z,28.00
2022-12-09T16:15:14.243Z,24.40
2022-12-09T16:20:41.230Z,30.10
2022-12-09T16:25:49.281Z,24.80
2022-12-09T16:30:55.730Z,31.10
2022-12-09T16:35:59.180Z,31.00
2022-12-09T16:41:04.273Z,30.70
2022-12-09T16:46:15.339Z,26.60
2022-12-09T16:51:23.899Z,30.20
2022-12-09T16:56:28.576Z,39.00
2022-12-09T17:01:35.626Z,34.60
2022-12-09T17:06:37.351Z,27.30
2022-12-09T17:11:42.900Z,23.50
2022-12-09T17:16:48.873Z,35.90
2022-12-09T17:21:55.348Z,19.50
2022-12-09T17:26:57.016Z,19.70
2022-12-09T17:31:58.789Z,18.40
2022-12-09T17:37:00.502Z,18.10
2022-12-09T17:42:02.239Z,18.60
2022-12-09T17:47:03.931Z,19.20
2022-12-09T17:52:05.851Z,17.40
2022-12-09T17:57:07.543Z,16.40
2022-12-09T18:02:11.189Z,20.00
2022-12-09T18:07:12.905Z,24.10
2022-12-09T18:12:14.592Z,23.50
2022-12-09T18:17:16.393Z,25.90
2022-12-09T18:22:18.134Z,26.00
2022-12-09T18:27:19.855Z,28.80
2022-12-09T18:32:21.592Z,32.60
2022-12-09T18:37:25.735Z,30.60
2022-12-09T18:42:27.405Z,25.50
2022-12-09T18:47:29.195Z,27.20
2022-12-09T18:52:30.921Z,25.00
2022-12-09T18:57:33.232Z,31.60
2022-12-09T19:02:34.986Z,27.70
2022-12-09T19:07:36.818Z,31.50
2022-12-09T19:12:46.991Z,36.60
2022-12-09T19:17:50.066Z,35.10
2022-12-09T19:22:52.292Z,31.90
2022-12-09T19:27:55.192Z,36.30
2022-12-09T19:32:56.928Z,31.60
2022-12-09T19:38:01.573Z,34.40
2022-12-09T19:43:03.899Z,35.40
2022-12-09T19:48:05.749Z,33.60
2022-12-09T19:53:08.870Z,35.10
2022-12-09T19:58:10.588Z,39.00
2022-12-09T20:03:12.382Z,35.30
2022-12-09T20:08:14.159Z,33.10
2022-12-09T20:13:16.383Z,38.10
2022-12-09T20:18:18.151Z,40.50
2022-12-09T20:23:19.886Z,31.40
2022-12-09T20:28:21.614Z,46.30
2022-12-09T20:33:23.263Z,37.70
2022-12-09T20:38:24.947Z,37.90
2022-12-09T20:43:26.712Z,36.50
2022-12-09T20:48:28.397Z,32.50
2022-12-09T20:53:30.577Z,34.80
2022-12-09T20:58:32.293Z,29.30
2022-12-09T21:03:34.279Z,35.00
2022-12-09T21:08:37.456Z,25.00
2022-12-09T21:13:42.356Z,30.20
2022-12-09T21:18:44.104Z,29.00
2022-12-09T21:23:46.918Z,31.30
2022-12-09T21:28:49.219Z,33.50
2022-12-09T21:33:52.511Z,31.30
2022-12-09T21:38:54.441Z,29.30
2022-12-09T21:43:57.605Z,25.10
2022-12-09T21:49:03.967Z,23.00
2022-12-09T21:54:06.296Z,26.10
2022-12-09T21:59:09.900Z,28.30
2022-12-09T22:04:16.096Z,30.10
2022-12-09T22:09:20.702Z,31.90
2022-12-09T22:14:24.109Z,30.10
2022-12-09T22:19:26.610Z,30.30
2022-12-09T22:24:28.335Z,31.40
2022-12-09T22:29:30.107Z,31.60
2022-12-09T22:34:36.986Z,32.20
2022-12-09T22:39:38.717Z,30.90
2022-12-09T22:44:40.975Z,31.80
2022-12-09T22:49:42.684Z,31.00
2022-12-09T22:54:44.529Z,25.20
2022-12-09T22:59:46.215Z,24.40
2022-12-09T23:04:47.908Z,23.40
2022-12-09T23:09:50.261Z,23.50
2022-12-09T23:14:51.967Z,24.00
2022-12-09T23:19:53.674Z,22.60
2022-12-09T23:24:55.381Z,22.20
2022-12-09T23:29:57.166Z,22.50
2022-12-09T23:35:03.075Z,19.90
2022-12-09T23:40:08.672Z,19.60
2022-12-09T23:45:10.676Z,21.50
2022-12-09T23:50:12.333Z,21.10
2022-12-09T23:55:13.990Z,23.90
